sensor_id;sensor_type;location;lat;lon;timestamp;temperature;humidity
1205;DHT22;592;48.764;9.174;2023-02-19T00:01:45;11.00;99.90
1205;DHT22;592;48.764;9.174;2023-02-19T00:04:14;11.00;99.90
1205;DHT22;592;48.764;9.174;2023-02-19T00:06:41;11.00;99.90
1205;DHT22;592;48.764;9.174;2023-02-19T00:09:09;11.10;99.90
1205;DHT22;592;48.764;9.174;2023-02-19T00:11:36;11.00;99.90
1205;DHT22;592;48.764;9.174;2023-02-19T00:14:03;11.10;99.90
1205;DHT22;592;48.764;9.174;2023-02-19T00:16:33;11.00;99.90
1205;DHT22;592;48.764;9.174;2023-02-19T00:19:02;11.00;99.90
1205;DHT22;592;48.764;9.174;2023-02-19T00:21:29;10.90;99.90
1205;DHT22;592;48.764;9.174;2023-02-19T00:23:57;10.90;99.90
1205;DHT22;592;48.764;9.174;2023-02-19T00:26:24;10.90;99.90
1205;DHT22;592;48.764;9.174;2023-02-19T00:28:52;10.80;99.90
1205;DHT22;592;48.764;9.174;2023-02-19T00:31:21;10.80;99.90
1205;DHT22;592;48.764;9.174;2023-02-19T00:33:51;10.80;99.90
1205;DHT22;592;48.764;9.174;2023-02-19T00:36:18;10.90;99.90
1205;DHT22;592;48.764;9.174;2023-02-19T00:38:46;10.80;99.90
1205;DHT22;592;48.764;9.174;2023-02-19T00:41:14;10.80;99.90
1205;DHT22;592;48.764;9.174;2023-02-19T00:43:48;10.80;99.90
1205;DHT22;592;48.764;9.174;2023-02-19T00:46:16;10.80;99.90
1205;DHT22;592;48.764;9.174;2023-02-19T00:48:43;10.80;99.90
1205;DHT22;592;48.764;9.174;2023-02-19T00:51:11;10.80;99.90
1205;DHT22;592;48.764;9.174;2023-02-19T00:53:38;10.80;99.90
1205;DHT22;592;48.764;9.174;2023-02-19T00:56:05;10.80;99.90
1205;DHT22;592;48.764;9.174;2023-02-19T00:58:31;10.80;99.90
1205;DHT22;592;48.764;9.174;2023-02-19T01:00:58;10.90;99.90
1205;DHT22;592;48.764;9.174;2023-02-19T01:03:25;10.70;99.90
1205;DHT22;592;48.764;9.174;2023-02-19T01:05:52;10.70;99.90
1205;DHT22;592;48.764;9.174;2023-02-19T01:08:21;10.70;99.90
1205;DHT22;592;48.764;9.174;2023-02-19T01:10:48;10.70;99.90
1205;DHT22;592;48.764;9.174;2023-02-19T01:13:15;10.80;99.90
1205;DHT22;592;48.764;9.174;2023-02-19T01:15:42;10.70;99.90
1205;DHT22;592;48.764;9.174;2023-02-19T01:18:09;10.60;99.90
1205;DHT22;592;48.764;9.174;2023-02-19T01:20:38;10.70;99.90
1205;DHT22;592;48.764;9.174;2023-02-19T01:23:05;10.70;99.90
1205;DHT22;592;48.764;9.174;2023-02-19T01:25:33;10.60;99.90
1205;DHT22;592;48.764;9.174;2023-02-19T01:27:59;10.70;99.90
1205;DHT22;592;48.764;9.174;2023-02-19T01:30:26;10.60;99.90
1205;DHT22;592;48.764;9.174;2023-02-19T01:32:53;10.70;99.90
1205;DHT22;592;48.764;9.174;2023-02-19T01:35:19;10.70;99.90
1205;DHT22;592;48.764;9.174;2023-02-19T01:37:47;10.70;99.90
1205;DHT22;592;48.764;9.174;2023-02-19T01:40:14;10.70;99.90
1205;DHT22;592;48.764;9.174;2023-02-19T01:42:43;10.80;99.90
1205;DHT22;592;48.764;9.174;2023-02-19T01:45:26;10.70;99.90
1205;DHT22;592;48.764;9.174;2023-02-19T01:48:04;10.70;99.90
1205;DHT22;592;48.764;9.174;2023-02-19T01:50:37;10.70;99.90
1205;DHT22;592;48.764;9.174;2023-02-19T01:53:07;10.70;99.90
1205;DHT22;592;48.764;9.174;2023-02-19T01:55:35;10.60;99.90
1205;DHT22;592;48.764;9.174;2023-02-19T01:58:05;10.70;99.90
1205;DHT22;592;48.764;9.174;2023-02-19T02:00:32;10.70;99.90
1205;DHT22;592;48.764;9.174;2023-02-19T02:02:59;10.70;99.90
1205;DHT22;592;48.764;9.174;2023-02-19T02:05:41;10.70;99.90
1205;DHT22;592;48.764;9.174;2023-02-19T02:08:11;10.60;99.90
1205;DHT22;592;48.764;9.174;2023-02-19T02:10:56;10.60;99.90
1205;DHT22;592;48.764;9.174;2023-02-19T02:13:24;10.60;99.90
1205;DHT22;592;48.764;9.174;2023-02-19T02:16:00;10.50;99.90
1205;DHT22;592;48.764;9.174;2023-02-19T02:18:36;10.50;99.90
1205;DHT22;592;48.764;9.174;2023-02-19T02:21:23;10.50;99.90
1205;DHT22;592;48.764;9.174;2023-02-19T02:24:03;10.50;99.90
1205;DHT22;592;48.764;9.174;2023-02-19T02:26:55;10.50;99.90
1205;DHT22;592;48.764;9.174;2023-02-19T02:29:53;10.60;99.90
1205;DHT22;592;48.764;9.174;2023-02-19T02:32:28;10.50;99.90
1205;DHT22;592;48.764;9.174;2023-02-19T02:35:02;10.20;99.90
1205;DHT22;592;48.764;9.174;2023-02-19T02:37:34;10.30;99.90
1205;DHT22;592;48.764;9.174;2023-02-19T02:40:04;10.40;99.90
1205;DHT22;592;48.764;9.174;2023-02-19T02:42:32;10.20;99.90
1205;DHT22;592;48.764;9.174;2023-02-19T02:45:22;10.20;99.90
1205;DHT22;592;48.764;9.174;2023-02-19T02:48:22;10.20;99.90
1205;DHT22;592;48.764;9.174;2023-02-19T02:50:52;10.30;99.90
1205;DHT22;592;48.764;9.174;2023-02-19T02:53:23;10.30;99.90
1205;DHT22;592;48.764;9.174;2023-02-19T02:56:11;10.30;99.90
1205;DHT22;592;48.764;9.174;2023-02-19T02:58:39;10.10;99.90
1205;DHT22;592;48.764;9.174;2023-02-19T03:01:10;10.20;99.90
1205;DHT22;592;48.764;9.174;2023-02-19T03:03:58;10.20;99.90
1205;DHT22;592;48.764;9.174;2023-02-19T03:06:30;10.20;99.90
1205;DHT22;592;48.764;9.174;2023-02-19T03:09:05;10.20;99.90
1205;DHT22;592;48.764;9.174;2023-02-19T03:11:34;10.30;99.90
1205;DHT22;592;48.764;9.174;2023-02-19T03:14:21;10.20;99.90
1205;DHT22;592;48.764;9.174;2023-02-19T03:17:14;10.10;99.90
1205;DHT22;592;48.764;9.174;2023-02-19T03:20:02;10.00;99.90
1205;DHT22;592;48.764;9.174;2023-02-19T03:22:32;9.80;99.90
1205;DHT22;592;48.764;9.174;2023-02-19T03:25:06;9.80;99.90
1205;DHT22;592;48.764;9.174;2023-02-19T03:27:53;9.90;99.90
1205;DHT22;592;48.764;9.174;2023-02-19T03:30:23;9.70;99.90
1205;DHT22;592;48.764;9.174;2023-02-19T03:32:54;9.60;99.90
1205;DHT22;592;48.764;9.174;2023-02-19T03:35:27;9.60;99.90
1205;DHT22;592;48.764;9.174;2023-02-19T03:38:00;9.70;99.90
1205;DHT22;592;48.764;9.174;2023-02-19T03:40:30;9.70;99.90
1205;DHT22;592;48.764;9.174;2023-02-19T03:43:06;9.70;99.90
1205;DHT22;592;48.764;9.174;2023-02-19T03:45:41;9.70;99.90
1205;DHT22;592;48.764;9.174;2023-02-19T03:48:21;9.70;99.90
1205;DHT22;592;48.764;9.174;2023-02-19T03:50:54;9.60;99.90
1205;DHT22;592;48.764;9.174;2023-02-19T03:53:29;9.40;99.90
1205;DHT22;592;48.764;9.174;2023-02-19T03:56:05;9.40;99.90
1205;DHT22;592;48.764;9.174;2023-02-19T03:58:39;9.50;99.90
1205;DHT22;592;48.764;9.174;2023-02-19T04:01:12;9.40;99.90
1205;DHT22;592;48.764;9.174;2023-02-19T04:03:45;9.40;99.90
1205;DHT22;592;48.764;9.174;2023-02-19T04:06:20;9.40;99.90
1205;DHT22;592;48.764;9.174;2023-02-19T04:08:51;9.50;99.90
1205;DHT22;592;48.764;9.174;2023-02-19T04:11:21;9.60;99.90
1205;DHT22;592;48.764;9.174;2023-02-19T04:13:54;9.60;99.90
1205;DHT22;592;48.764;9.174;2023-02-19T04:16:25;9.60;99.90
1205;DHT22;592;48.764;9.174;2023-02-19T04:18:57;9.70;99.90
1205;DHT22;592;48.764;9.174;2023-02-19T04:21:25;9.60;99.90
1205;DHT22;592;48.764;9.174;2023-02-19T04:23:55;9.60;99.90
1205;DHT22;592;48.764;9.174;2023-02-19T04:26:23;9.60;99.90
1205;DHT22;592;48.764;9.174;2023-02-19T04:28:50;9.70;99.90
1205;DHT22;592;48.764;9.174;2023-02-19T04:31:17;9.70;99.90
1205;DHT22;592;48.764;9.174;2023-02-19T04:33:43;9.50;99.90
1205;DHT22;592;48.764;9.174;2023-02-19T04:36:11;9.50;99.90
1205;DHT22;592;48.764;9.174;2023-02-19T04:38:38;9.50;99.90
1205;DHT22;592;48.764;9.174;2023-02-19T04:41:05;9.50;99.90
1205;DHT22;592;48.764;9.174;2023-02-19T04:43:31;9.40;99.90
1205;DHT22;592;48.764;9.174;2023-02-19T04:45:59;9.40;99.90
1205;DHT22;592;48.764;9.174;2023-02-19T04:48:27;9.40;99.90
1205;DHT22;592;48.764;9.174;2023-02-19T04:50:54;9.50;99.90
1205;DHT22;592;48.764;9.174;2023-02-19T04:53:22;9.60;99.90
1205;DHT22;592;48.764;9.174;2023-02-19T04:55:49;9.60;99.90
1205;DHT22;592;48.764;9.174;2023-02-19T04:58:18;9.60;99.90
1205;DHT22;592;48.764;9.174;2023-02-19T05:00:45;9.60;99.90
1205;DHT22;592;48.764;9.174;2023-02-19T05:03:11;9.60;99.90
1205;DHT22;592;48.764;9.174;2023-02-19T05:05:38;9.60;99.90
1205;DHT22;592;48.764;9.174;2023-02-19T05:08:05;9.70;99.90
1205;DHT22;592;48.764;9.174;2023-02-19T05:10:33;9.60;99.90
1205;DHT22;592;48.764;9.174;2023-02-19T05:13:00;9.70;99.90
1205;DHT22;592;48.764;9.174;2023-02-19T05:15:26;9.70;99.90
1205;DHT22;592;48.764;9.174;2023-02-19T05:17:53;9.60;99.90
1205;DHT22;592;48.764;9.174;2023-02-19T05:20:20;9.70;99.90
1205;DHT22;592;48.764;9.174;2023-02-19T05:22:47;9.70;99.90
1205;DHT22;592;48.764;9.174;2023-02-19T05:25:14;9.70;99.90
1205;DHT22;592;48.764;9.174;2023-02-19T05:27:42;9.70;99.90
1205;DHT22;592;48.764;9.174;2023-02-19T05:30:09;9.70;99.90
1205;DHT22;592;48.764;9.174;2023-02-19T05:32:36;9.70;99.90
1205;DHT22;592;48.764;9.174;2023-02-19T05:35:03;9.60;99.90
1205;DHT22;592;48.764;9.174;2023-02-19T05:37:30;9.70;99.90
1205;DHT22;592;48.764;9.174;2023-02-19T05:39:57;9.70;99.90
1205;DHT22;592;48.764;9.174;2023-02-19T05:42:24;9.70;99.90
1205;DHT22;592;48.764;9.174;2023-02-19T05:44:52;9.70;99.90
1205;DHT22;592;48.764;9.174;2023-02-19T05:47:18;9.70;99.90
1205;DHT22;592;48.764;9.174;2023-02-19T05:49:45;9.70;99.90
1205;DHT22;592;48.764;9.174;2023-02-19T05:52:12;9.70;99.90
1205;DHT22;592;48.764;9.174;2023-02-19T05:54:39;9.60;99.90
1205;DHT22;592;48.764;9.174;2023-02-19T05:57:05;9.60;99.90
1205;DHT22;592;48.764;9.174;2023-02-19T05:59:32;9.60;99.90
1205;DHT22;592;48.764;9.174;2023-02-19T06:02:00;9.60;99.90
1205;DHT22;592;48.764;9.174;2023-02-19T06:04:27;9.60;99.90
1205;DHT22;592;48.764;9.174;2023-02-19T06:06:53;9.60;99.90
1205;DHT22;592;48.764;9.174;2023-02-19T06:09:20;9.60;99.90
1205;DHT22;592;48.764;9.174;2023-02-19T06:11:47;9.60;99.90
1205;DHT22;592;48.764;9.174;2023-02-19T06:14:13;9.40;99.90
1205;DHT22;592;48.764;9.174;2023-02-19T06:16:40;9.40;99.90
1205;DHT22;592;48.764;9.174;2023-02-19T06:19:08;9.30;99.90
1205;DHT22;592;48.764;9.174;2023-02-19T06:21:35;9.20;99.90
1205;DHT22;592;48.764;9.174;2023-02-19T06:24:05;9.10;99.90
1205;DHT22;592;48.764;9.174;2023-02-19T06:26:33;9.20;99.90
1205;DHT22;592;48.764;9.174;2023-02-19T06:28:59;9.20;99.90
1205;DHT22;592;48.764;9.174;2023-02-19T06:31:26;9.30;99.90
1205;DHT22;592;48.764;9.174;2023-02-19T06:33:53;9.10;99.90
1205;DHT22;592;48.764;9.174;2023-02-19T06:36:22;9.10;99.90
1205;DHT22;592;48.764;9.174;2023-02-19T06:38:48;9.00;99.90
1205;DHT22;592;48.764;9.174;2023-02-19T06:41:15;9.00;99.90
1205;DHT22;592;48.764;9.174;2023-02-19T06:43:42;9.10;99.90
1205;DHT22;592;48.764;9.174;2023-02-19T06:46:10;9.00;99.90
1205;DHT22;592;48.764;9.174;2023-02-19T06:48:38;9.00;99.90
1205;DHT22;592;48.764;9.174;2023-02-19T06:51:05;9.10;99.90
1205;DHT22;592;48.764;9.174;2023-02-19T06:53:33;9.10;99.90
1205;DHT22;592;48.764;9.174;2023-02-19T06:56:02;9.10;99.90
1205;DHT22;592;48.764;9.174;2023-02-19T06:58:29;9.10;99.90
1205;DHT22;592;48.764;9.174;2023-02-19T07:00:56;9.00;99.90
1205;DHT22;592;48.764;9.174;2023-02-19T07:03:23;9.10;99.90
1205;DHT22;592;48.764;9.174;2023-02-19T07:05:50;9.10;99.90
1205;DHT22;592;48.764;9.174;2023-02-19T07:08:17;9.10;99.90
1205;DHT22;592;48.764;9.174;2023-02-19T07:10:52;9.10;99.90
1205;DHT22;592;48.764;9.174;2023-02-19T07:13:19;9.10;99.90
1205;DHT22;592;48.764;9.174;2023-02-19T07:15:45;9.10;99.90
1205;DHT22;592;48.764;9.174;2023-02-19T07:18:12;9.10;99.90
1205;DHT22;592;48.764;9.174;2023-02-19T07:20:39;9.10;99.90
1205;DHT22;592;48.764;9.174;2023-02-19T07:23:05;9.20;99.90
1205;DHT22;592;48.764;9.174;2023-02-19T07:25:32;9.10;99.90
1205;DHT22;592;48.764;9.174;2023-02-19T07:28:00;9.10;99.90
1205;DHT22;592;48.764;9.174;2023-02-19T07:30:27;9.10;99.90
1205;DHT22;592;48.764;9.174;2023-02-19T07:32:54;9.20;99.90
1205;DHT22;592;48.764;9.174;2023-02-19T07:35:20;9.10;99.90
1205;DHT22;592;48.764;9.174;2023-02-19T07:37:47;9.10;99.90
1205;DHT22;592;48.764;9.174;2023-02-19T07:40:14;9.20;99.90
1205;DHT22;592;48.764;9.174;2023-02-19T07:42:40;9.20;99.90
1205;DHT22;592;48.764;9.174;2023-02-19T07:45:09;9.20;99.90
1205;DHT22;592;48.764;9.174;2023-02-19T07:47:35;9.20;99.90
1205;DHT22;592;48.764;9.174;2023-02-19T07:50:02;9.20;99.90
1205;DHT22;592;48.764;9.174;2023-02-19T07:52:29;9.20;99.90
1205;DHT22;592;48.764;9.174;2023-02-19T07:54:56;9.20;99.90
1205;DHT22;592;48.764;9.174;2023-02-19T07:57:22;9.30;99.90
1205;DHT22;592;48.764;9.174;2023-02-19T07:59:49;9.30;99.90
1205;DHT22;592;48.764;9.174;2023-02-19T08:02:18;9.30;99.90
1205;DHT22;592;48.764;9.174;2023-02-19T08:05:04;9.30;99.90
1205;DHT22;592;48.764;9.174;2023-02-19T08:07:32;9.40;99.90
1205;DHT22;592;48.764;9.174;2023-02-19T08:09:58;9.40;99.90
1205;DHT22;592;48.764;9.174;2023-02-19T08:12:39;9.40;99.90
1205;DHT22;592;48.764;9.174;2023-02-19T08:15:23;9.40;99.90
1205;DHT22;592;48.764;9.174;2023-02-19T08:17:51;9.50;99.90
1205;DHT22;592;48.764;9.174;2023-02-19T08:20:18;9.50;99.90
1205;DHT22;592;48.764;9.174;2023-02-19T08:22:45;9.50;99.90
1205;DHT22;592;48.764;9.174;2023-02-19T08:25:11;9.50;99.90
1205;DHT22;592;48.764;9.174;2023-02-19T08:27:38;9.60;99.90
1205;DHT22;592;48.764;9.174;2023-02-19T08:30:06;9.60;99.90
1205;DHT22;592;48.764;9.174;2023-02-19T08:32:33;9.50;99.90
1205;DHT22;592;48.764;9.174;2023-02-19T08:35:01;9.40;99.90
1205;DHT22;592;48.764;9.174;2023-02-19T08:37:27;9.40;99.90
1205;DHT22;592;48.764;9.174;2023-02-19T08:39:54;9.30;99.90
1205;DHT22;592;48.764;9.174;2023-02-19T08:42:21;9.40;99.90
1205;DHT22;592;48.764;9.174;2023-02-19T08:44:48;9.50;99.90
1205;DHT22;592;48.764;9.174;2023-02-19T08:47:15;9.50;99.90
1205;DHT22;592;48.764;9.174;2023-02-19T08:49:42;9.40;99.90
1205;DHT22;592;48.764;9.174;2023-02-19T08:52:10;9.40;99.90
1205;DHT22;592;48.764;9.174;2023-02-19T08:54:37;9.50;99.90
1205;DHT22;592;48.764;9.174;2023-02-19T08:57:04;9.50;99.90
1205;DHT22;592;48.764;9.174;2023-02-19T08:59:30;9.60;99.90
1205;DHT22;592;48.764;9.174;2023-02-19T09:01:57;9.50;99.90
1205;DHT22;592;48.764;9.174;2023-02-19T09:04:24;9.50;99.90
1205;DHT22;592;48.764;9.174;2023-02-19T09:06:51;9.50;99.90
1205;DHT22;592;48.764;9.174;2023-02-19T09:09:19;9.50;99.90
1205;DHT22;592;48.764;9.174;2023-02-19T09:11:45;9.50;99.90
1205;DHT22;592;48.764;9.174;2023-02-19T09:14:12;9.50;99.90
1205;DHT22;592;48.764;9.174;2023-02-19T09:16:39;9.60;99.90
1205;DHT22;592;48.764;9.174;2023-02-19T09:19:05;9.60;99.90
1205;DHT22;592;48.764;9.174;2023-02-19T09:21:32;9.70;99.90
1205;DHT22;592;48.764;9.174;2023-02-19T09:23:59;9.80;99.90
1205;DHT22;592;48.764;9.174;2023-02-19T09:26:27;9.80;99.90
1205;DHT22;592;48.764;9.174;2023-02-19T09:28:53;9.80;99.90
1205;DHT22;592;48.764;9.174;2023-02-19T09:31:20;9.80;99.90
1205;DHT22;592;48.764;9.174;2023-02-19T09:33:47;9.80;99.90
1205;DHT22;592;48.764;9.174;2023-02-19T09:36:15;9.90;99.90
1205;DHT22;592;48.764;9.174;2023-02-19T09:38:43;9.80;99.90
1205;DHT22;592;48.764;9.174;2023-02-19T09:41:16;9.90;99.90
1205;DHT22;592;48.764;9.174;2023-02-19T09:43:45;9.90;99.90
1205;DHT22;592;48.764;9.174;2023-02-19T09:46:23;9.90;99.90
1205;DHT22;592;48.764;9.174;2023-02-19T09:48:51;9.90;99.90
1205;DHT22;592;48.764;9.174;2023-02-19T09:51:18;9.80;99.90
1205;DHT22;592;48.764;9.174;2023-02-19T09:53:48;9.90;99.90
1205;DHT22;592;48.764;9.174;2023-02-19T09:56:16;9.90;99.90
1205;DHT22;592;48.764;9.174;2023-02-19T09:58:46;9.90;99.90
1205;DHT22;592;48.764;9.174;2023-02-19T10:01:14;9.90;99.90
1205;DHT22;592;48.764;9.174;2023-02-19T10:03:44;10.00;99.90
1205;DHT22;592;48.764;9.174;2023-02-19T10:06:16;10.10;99.90
1205;DHT22;592;48.764;9.174;2023-02-19T10:08:49;10.20;99.90
1205;DHT22;592;48.764;9.174;2023-02-19T10:11:17;10.30;99.90
1205;DHT22;592;48.764;9.174;2023-02-19T10:13:48;10.20;99.90
1205;DHT22;592;48.764;9.174;2023-02-19T10:16:19;10.40;99.90
1205;DHT22;592;48.764;9.174;2023-02-19T10:18:48;10.20;99.90
1205;DHT22;592;48.764;9.174;2023-02-19T10:21:16;10.30;99.90
1205;DHT22;592;48.764;9.174;2023-02-19T10:23:46;10.20;99.90
1205;DHT22;592;48.764;9.174;2023-02-19T10:26:14;10.30;99.90
1205;DHT22;592;48.764;9.174;2023-02-19T10:28:40;10.40;99.90
1205;DHT22;592;48.764;9.174;2023-02-19T10:31:15;10.50;99.90
1205;DHT22;592;48.764;9.174;2023-02-19T10:33:48;10.40;99.90
1205;DHT22;592;48.764;9.174;2023-02-19T10:36:23;10.50;99.90
1205;DHT22;592;48.764;9.174;2023-02-19T10:38:50;10.70;99.90
1205;DHT22;592;48.764;9.174;2023-02-19T10:41:20;10.70;99.90
1205;DHT22;592;48.764;9.174;2023-02-19T10:43:51;10.70;99.90
1205;DHT22;592;48.764;9.174;2023-02-19T10:46:23;10.80;99.90
1205;DHT22;592;48.764;9.174;2023-02-19T10:48:52;10.80;99.90
1205;DHT22;592;48.764;9.174;2023-02-19T10:51:33;10.80;99.90
1205;DHT22;592;48.764;9.174;2023-02-19T10:54:08;10.90;99.90
1205;DHT22;592;48.764;9.174;2023-02-19T10:56:40;10.90;99.90
1205;DHT22;592;48.764;9.174;2023-02-19T10:59:20;10.90;99.90
1205;DHT22;592;48.764;9.174;2023-02-19T11:01:57;11.00;99.90
1205;DHT22;592;48.764;9.174;2023-02-19T11:04:25;11.00;99.90
1205;DHT22;592;48.764;9.174;2023-02-19T11:06:53;10.90;99.90
1205;DHT22;592;48.764;9.174;2023-02-19T11:09:26;10.90;99.90
1205;DHT22;592;48.764;9.174;2023-02-19T11:11:54;10.80;99.90
1205;DHT22;592;48.764;9.174;2023-02-19T11:14:23;10.80;99.90
1205;DHT22;592;48.764;9.174;2023-02-19T11:16:51;10.90;99.90
1205;DHT22;592;48.764;9.174;2023-02-19T11:19:28;10.70;99.90
1205;DHT22;592;48.764;9.174;2023-02-19T11:21:58;10.80;99.90
1205;DHT22;592;48.764;9.174;2023-02-19T11:24:29;11.00;99.90
1205;DHT22;592;48.764;9.174;2023-02-19T11:26:58;10.90;99.90
1205;DHT22;592;48.764;9.174;2023-02-19T11:29:25;10.90;99.90
1205;DHT22;592;48.764;9.174;2023-02-19T11:31:53;10.70;99.90
1205;DHT22;592;48.764;9.174;2023-02-19T11:34:28;10.60;99.90
1205;DHT22;592;48.764;9.174;2023-02-19T11:37:11;10.60;99.90
1205;DHT22;592;48.764;9.174;2023-02-19T11:39:40;10.60;99.90
1205;DHT22;592;48.764;9.174;2023-02-19T11:42:41;10.60;99.90
1205;DHT22;592;48.764;9.174;2023-02-19T11:45:21;10.50;99.90
1205;DHT22;592;48.764;9.174;2023-02-19T11:48:07;10.60;99.90
1205;DHT22;592;48.764;9.174;2023-02-19T11:50:51;10.60;99.90
1205;DHT22;592;48.764;9.174;2023-02-19T11:53:24;10.70;99.90
1205;DHT22;592;48.764;9.174;2023-02-19T11:56:01;10.70;99.90
1205;DHT22;592;48.764;9.174;2023-02-19T11:58:50;10.80;99.90
1205;DHT22;592;48.764;9.174;2023-02-19T12:01:22;10.70;99.90
1205;DHT22;592;48.764;9.174;2023-02-19T12:07:04;10.60;99.90
1205;DHT22;592;48.764;9.174;2023-02-19T12:09:45;10.80;99.90
1205;DHT22;592;48.764;9.174;2023-02-19T12:12:28;10.80;99.90
1205;DHT22;592;48.764;9.174;2023-02-19T12:18:11;10.80;99.90
1205;DHT22;592;48.764;9.174;2023-02-19T12:20:46;10.70;99.90
1205;DHT22;592;48.764;9.174;2023-02-19T12:23:33;10.70;99.90
1205;DHT22;592;48.764;9.174;2023-02-19T12:26:06;10.80;99.90
1205;DHT22;592;48.764;9.174;2023-02-19T12:31:58;10.70;99.90
1205;DHT22;592;48.764;9.174;2023-02-19T12:34:48;10.90;99.90
1205;DHT22;592;48.764;9.174;2023-02-19T12:37:26;11.00;99.90
1205;DHT22;592;48.764;9.174;2023-02-19T12:40:10;11.00;99.90
1205;DHT22;592;48.764;9.174;2023-02-19T12:42:48;11.00;99.90
1205;DHT22;592;48.764;9.174;2023-02-19T12:45:19;11.70;99.90
1205;DHT22;592;48.764;9.174;2023-02-19T12:47:55;11.10;99.90
1205;DHT22;592;48.764;9.174;2023-02-19T12:50:24;11.20;99.90
1205;DHT22;592;48.764;9.174;2023-02-19T12:52:55;11.30;99.90
1205;DHT22;592;48.764;9.174;2023-02-19T12:55:27;11.20;99.90
1205;DHT22;592;48.764;9.174;2023-02-19T12:57:58;11.00;99.90
1205;DHT22;592;48.764;9.174;2023-02-19T13:00:30;12.00;99.90
1205;DHT22;592;48.764;9.174;2023-02-19T13:03:08;11.00;99.90
1205;DHT22;592;48.764;9.174;2023-02-19T13:05:41;11.30;99.90
1205;DHT22;592;48.764;9.174;2023-02-19T13:08:14;11.60;99.90
1205;DHT22;592;48.764;9.174;2023-02-19T13:10:46;11.60;99.90
1205;DHT22;592;48.764;9.174;2023-02-19T13:13:19;11.40;99.90
1205;DHT22;592;48.764;9.174;2023-02-19T13:15:50;11.40;99.90
1205;DHT22;592;48.764;9.174;2023-02-19T13:18:21;11.10;99.90
1205;DHT22;592;48.764;9.174;2023-02-19T13:20:50;10.80;99.90
1205;DHT22;592;48.764;9.174;2023-02-19T13:23:21;10.70;99.90
1205;DHT22;592;48.764;9.174;2023-02-19T13:26:19;10.80;99.90
1205;DHT22;592;48.764;9.174;2023-02-19T13:28:58;10.80;99.90
1205;DHT22;592;48.764;9.174;2023-02-19T13:31:44;10.90;99.90
1205;DHT22;592;48.764;9.174;2023-02-19T13:34:23;10.90;99.90
1205;DHT22;592;48.764;9.174;2023-02-19T13:36:55;10.80;99.90
1205;DHT22;592;48.764;9.174;2023-02-19T13:39:22;10.60;99.90
1205;DHT22;592;48.764;9.174;2023-02-19T13:41:50;10.70;99.90
1205;DHT22;592;48.764;9.174;2023-02-19T13:44:20;10.80;99.90
1205;DHT22;592;48.764;9.174;2023-02-19T13:46:48;10.70;99.90
1205;DHT22;592;48.764;9.174;2023-02-19T13:49:42;10.70;99.90
1205;DHT22;592;48.764;9.174;2023-02-19T13:52:39;10.70;99.90
1205;DHT22;592;48.764;9.174;2023-02-19T13:58:38;10.80;99.90
1205;DHT22;592;48.764;9.174;2023-02-19T14:01:19;10.80;99.90
1205;DHT22;592;48.764;9.174;2023-02-19T14:04:08;10.50;99.90
1205;DHT22;592;48.764;9.174;2023-02-19T14:09:45;10.70;99.90
1205;DHT22;592;48.764;9.174;2023-02-19T14:12:20;10.60;99.90
1205;DHT22;592;48.764;9.174;2023-02-19T14:14:49;10.60;99.90
1205;DHT22;592;48.764;9.174;2023-02-19T14:17:27;10.60;99.90
1205;DHT22;592;48.764;9.174;2023-02-19T14:19:59;10.70;99.90
1205;DHT22;592;48.764;9.174;2023-02-19T14:25:37;10.50;99.90
1205;DHT22;592;48.764;9.174;2023-02-19T14:28:18;10.60;99.90
1205;DHT22;592;48.764;9.174;2023-02-19T14:30:50;10.70;99.90
1205;DHT22;592;48.764;9.174;2023-02-19T14:33:21;10.60;99.90
1205;DHT22;592;48.764;9.174;2023-02-19T14:35:51;10.60;99.90
1205;DHT22;592;48.764;9.174;2023-02-19T14:38:21;10.60;99.90
1205;DHT22;592;48.764;9.174;2023-02-19T14:40:49;10.70;99.90
1205;DHT22;592;48.764;9.174;2023-02-19T14:43:19;10.80;99.90
1205;DHT22;592;48.764;9.174;2023-02-19T14:45:50;10.70;99.90
1205;DHT22;592;48.764;9.174;2023-02-19T14:48:21;10.70;99.90
1205;DHT22;592;48.764;9.174;2023-02-19T14:50:52;10.70;99.90
1205;DHT22;592;48.764;9.174;2023-02-19T14:53:22;10.60;99.90
1205;DHT22;592;48.764;9.174;2023-02-19T14:55:50;10.70;99.90
1205;DHT22;592;48.764;9.174;2023-02-19T14:58:21;10.60;99.90
1205;DHT22;592;48.764;9.174;2023-02-19T15:00:51;10.60;99.90
1205;DHT22;592;48.764;9.174;2023-02-19T15:03:26;10.60;99.90
1205;DHT22;592;48.764;9.174;2023-02-19T15:05:55;10.70;99.90
1205;DHT22;592;48.764;9.174;2023-02-19T15:08:28;10.70;99.90
1205;DHT22;592;48.764;9.174;2023-02-19T15:10:56;10.60;99.90
1205;DHT22;592;48.764;9.174;2023-02-19T15:13:26;10.60;99.90
1205;DHT22;592;48.764;9.174;2023-02-19T15:15:55;10.60;99.90
1205;DHT22;592;48.764;9.174;2023-02-19T15:18:23;10.60;99.90
1205;DHT22;592;48.764;9.174;2023-02-19T15:20:57;10.60;99.90
1205;DHT22;592;48.764;9.174;2023-02-19T15:23:24;10.60;99.90
1205;DHT22;592;48.764;9.174;2023-02-19T15:25:52;10.60;99.90
1205;DHT22;592;48.764;9.174;2023-02-19T15:28:24;10.60;99.90
1205;DHT22;592;48.764;9.174;2023-02-19T15:31:14;10.70;99.90
1205;DHT22;592;48.764;9.174;2023-02-19T15:33:48;10.60;99.90
1205;DHT22;592;48.764;9.174;2023-02-19T15:36:19;10.60;99.90
1205;DHT22;592;48.764;9.174;2023-02-19T15:38:54;10.50;99.90
1205;DHT22;592;48.764;9.174;2023-02-19T15:41:25;10.50;99.90
1205;DHT22;592;48.764;9.174;2023-02-19T15:43:57;10.50;99.90
1205;DHT22;592;48.764;9.174;2023-02-19T15:46:26;10.40;99.90
1205;DHT22;592;48.764;9.174;2023-02-19T15:48:58;10.50;99.90
1205;DHT22;592;48.764;9.174;2023-02-19T15:51:29;10.60;99.90
1205;DHT22;592;48.764;9.174;2023-02-19T15:54:01;10.50;99.90
1205;DHT22;592;48.764;9.174;2023-02-19T15:56:30;10.40;99.90
1205;DHT22;592;48.764;9.174;2023-02-19T15:59:00;10.20;99.90
1205;DHT22;592;48.764;9.174;2023-02-19T16:01:30;10.20;99.90
1205;DHT22;592;48.764;9.174;2023-02-19T16:03:58;10.20;99.90
1205;DHT22;592;48.764;9.174;2023-02-19T16:06:27;10.30;99.90
1205;DHT22;592;48.764;9.174;2023-02-19T16:09:02;10.60;99.90
1205;DHT22;592;48.764;9.174;2023-02-19T16:11:35;10.20;99.90
1205;DHT22;592;48.764;9.174;2023-02-19T16:14:18;10.00;99.90
1205;DHT22;592;48.764;9.174;2023-02-19T16:16:51;10.00;99.90
1205;DHT22;592;48.764;9.174;2023-02-19T16:19:20;10.00;99.90
1205;DHT22;592;48.764;9.174;2023-02-19T16:21:47;9.80;99.90
1205;DHT22;592;48.764;9.174;2023-02-19T16:24:24;9.90;99.90
1205;DHT22;592;48.764;9.174;2023-02-19T16:26:51;9.90;99.90
1205;DHT22;592;48.764;9.174;2023-02-19T16:29:20;10.00;99.90
1205;DHT22;592;48.764;9.174;2023-02-19T16:31:50;10.20;99.90
1205;DHT22;592;48.764;9.174;2023-02-19T16:34:25;10.10;99.90
1205;DHT22;592;48.764;9.174;2023-02-19T16:36:54;10.00;99.90
1205;DHT22;592;48.764;9.174;2023-02-19T16:39:22;10.00;99.90
1205;DHT22;592;48.764;9.174;2023-02-19T16:42:10;9.90;99.90
1205;DHT22;592;48.764;9.174;2023-02-19T16:44:37;9.90;99.90
1205;DHT22;592;48.764;9.174;2023-02-19T16:47:11;10.00;99.90
1205;DHT22;592;48.764;9.174;2023-02-19T16:49:39;9.80;99.90
1205;DHT22;592;48.764;9.174;2023-02-19T16:52:08;9.70;99.90
1205;DHT22;592;48.764;9.174;2023-02-19T16:54:37;9.60;99.90
1205;DHT22;592;48.764;9.174;2023-02-19T16:57:03;9.60;99.90
1205;DHT22;592;48.764;9.174;2023-02-19T16:59:30;9.70;99.90
1205;DHT22;592;48.764;9.174;2023-02-19T17:01:57;9.70;99.90
1205;DHT22;592;48.764;9.174;2023-02-19T17:04:25;9.60;99.90
1205;DHT22;592;48.764;9.174;2023-02-19T17:06:52;9.20;99.90
1205;DHT22;592;48.764;9.174;2023-02-19T17:09:19;9.60;99.90